createdAt,value
2022-09-28T00:02:26.557Z,8.90
2022-09-28T00:04:53.250Z,9.00
2022-09-28T00:07:19.907Z,9.00
2022-09-28T00:09:46.573Z,9.10
2022-09-28T00:12:13.220Z,9.10
2022-09-28T00:14:44.568Z,9.10
2022-09-28T00:17:12.333Z,9.10
2022-09-28T00:19:40.304Z,9.10
2022-09-28T00:22:07.581Z,9.10
2022-09-28T00:24:34.372Z,9.10
2022-09-28T00:27:02.632Z,9.10
2022-09-28T00:29:34.970Z,9.00
2022-09-28T00:32:12.024Z,9.10
2022-09-28T00:34:43.211Z,9.00
2022-09-28T00:37:10.427Z,9.00
2022-09-28T00:39:38.435Z,9.00
2022-09-28T00:42:17.053Z,8.90
2022-09-28T00:44:51.557Z,8.90
2022-09-28T00:47:46.570Z,8.90
2022-09-28T00:50:32.155Z,8.90
2022-09-28T00:53:18.504Z,8.90
2022-09-28T00:55:59.266Z,8.90
2022-09-28T00:58:29.719Z,8.80
2022-09-28T01:00:58.764Z,8.70
2022-09-28T01:03:29.068Z,8.80
2022-09-28T01:05:59.272Z,8.80
2022-09-28T01:08:29.286Z,8.80
2022-09-28T01:10:57.919Z,8.80
2022-09-28T01:13:25.066Z,8.90
2022-09-28T01:15:59.699Z,8.90
2022-09-28T01:18:36.953Z,8.80
2022-09-28T01:21:24.420Z,8.90
2022-09-28T01:24:10.346Z,8.90
2022-09-28T01:26:36.950Z,8.90
2022-09-28T01:29:18.830Z,8.90
2022-09-28T01:31:56.947Z,8.90
2022-09-28T01:34:39.411Z,9.00
2022-09-28T01:37:11.296Z,8.90
2022-09-28T01:39:42.745Z,8.90
2022-09-28T01:42:16.779Z,8.90
2022-09-28T01:44:48.284Z,8.90
2022-09-28T01:47:20.073Z,8.80
2022-09-28T01:49:51.790Z,8.70
2022-09-28T01:52:24.888Z,8.80
2022-09-28T01:55:02.361Z,8.70
2022-09-28T01:57:43.228Z,8.80
2022-09-28T02:00:13.063Z,8.80
2022-09-28T02:02:56.140Z,8.80
2022-09-28T02:05:39.690Z,8.80
2022-09-28T02:08:25.420Z,8.90
2022-09-28T02:10:58.674Z,8.90
2022-09-28T02:13:32.975Z,8.90
2022-09-28T02:16:12.735Z,8.80
2022-09-28T02:18:39.449Z,8.80
2022-09-28T02:21:13.253Z,8.80
2022-09-28T02:23:44.358Z,8.80
2022-09-28T02:26:13.543Z,8.80
2022-09-28T02:28:40.173Z,8.70
2022-09-28T02:31:07.145Z,8.70
2022-09-28T02:33:39.678Z,8.70
2022-09-28T02:36:06.898Z,8.80
2022-09-28T02:38:33.650Z,8.80
2022-09-28T02:41:26.405Z,8.70
2022-09-28T02:44:04.956Z,8.80
2022-09-28T02:46:53.735Z,8.80
2022-09-28T02:49:31.067Z,8.80
2022-09-28T02:52:16.285Z,8.80
2022-09-28T02:54:57.710Z,8.80
2022-09-28T02:57:36.350Z,8.80
2022-09-28T03:00:09.036Z,8.90
2022-09-28T03:02:53.878Z,8.80
2022-09-28T03:05:42.460Z,8.90
2022-09-28T03:08:17.587Z,8.90
2022-09-28T03:10:57.100Z,8.90
2022-09-28T03:13:25.576Z,8.90
2022-09-28T03:15:52.261Z,8.90
2022-09-28T03:18:18.945Z,8.90
2022-09-28T03:20:45.616Z,8.90
2022-09-28T03:23:24.415Z,9.00
2022-09-28T03:25:52.136Z,9.00
2022-09-28T03:28:18.833Z,9.00
2022-09-28T03:30:45.495Z,9.00
2022-09-28T03:33:12.137Z,9.10
2022-09-28T03:35:39.042Z,9.10
2022-09-28T03:38:05.738Z,9.10
2022-09-28T03:40:32.413Z,9.10
2022-09-28T03:43:00.763Z,9.10
2022-09-28T03:45:27.527Z,9.10
2022-09-28T03:47:54.194Z,9.10
2022-09-28T03:50:20.838Z,9.10
2022-09-28T03:52:47.501Z,9.10
2022-09-28T03:55:14.348Z,9.20
2022-09-28T03:57:40.982Z,9.20
2022-09-28T04:00:08.694Z,9.20
2022-09-28T04:02:35.618Z,9.20
2022-09-28T04:05:02.583Z,9.20
2022-09-28T04:07:31.169Z,9.20
2022-09-28T04:09:58.148Z,9.20
2022-09-28T04:12:24.865Z,9.10
2022-09-28T04:14:51.492Z,9.10
2022-09-28T04:17:18.183Z,9.20
2022-09-28T04:19:44.909Z,9.20
2022-09-28T04:22:11.593Z,9.10
2022-09-28T04:24:38.296Z,9.10
2022-09-28T04:27:23.669Z,9.10
2022-09-28T04:29:50.272Z,9.20
2022-09-28T04:32:16.929Z,9.20
2022-09-28T04:34:44.490Z,9.20
2022-09-28T04:37:11.578Z,9.30
2022-09-28T04:39:38.258Z,9.30
2022-09-28T04:42:05.546Z,9.30
2022-09-28T04:44:32.202Z,9.30
2022-09-28T04:47:01.757Z,9.30
2022-09-28T04:49:31.753Z,9.20
2022-09-28T04:51:58.407Z,9.30
2022-09-28T04:54:25.011Z,9.30
2022-09-28T04:56:52.868Z,9.30
2022-09-28T04:59:19.498Z,9.30
2022-09-28T05:01:47.475Z,9.30
2022-09-28T05:04:14.171Z,9.20
2022-09-28T05:06:41.010Z,9.20
2022-09-28T05:09:09.445Z,9.20
2022-09-28T05:11:36.090Z,9.20
2022-09-28T05:14:02.929Z,9.20
2022-09-28T05:16:31.002Z,9.20
2022-09-28T05:18:57.846Z,9.20
2022-09-28T05:21:26.308Z,9.20
2022-09-28T05:23:55.985Z,9.20
2022-09-28T05:26:23.168Z,9.20
2022-09-28T05:28:50.779Z,9.30
2022-09-28T05:31:17.518Z,9.30
2022-09-28T05:33:44.187Z,9.30
2022-09-28T05:36:11.321Z,9.30
2022-09-28T05:38:38.045Z,9.30
2022-09-28T05:41:06.829Z,9.30
2022-09-28T05:43:33.788Z,9.30
2022-09-28T05:46:00.937Z,9.30
2022-09-28T05:48:28.330Z,9.30
2022-09-28T05:50:55.480Z,9.30
2022-09-28T05:53:22.155Z,9.20
2022-09-28T05:55:48.948Z,9.20
2022-09-28T05:58:16.291Z,9.20
2022-09-28T06:00:43.368Z,9.20
2022-09-28T06:03:14.422Z,9.20
2022-09-28T06:05:41.601Z,9.10
2022-09-28T06:08:10.629Z,9.10
2022-09-28T06:10:37.798Z,9.10
2022-09-28T06:13:04.880Z,9.00
2022-09-28T06:15:33.690Z,9.00
2022-09-28T06:18:11.703Z,9.00
2022-09-28T06:20:41.378Z,9.00
2022-09-28T06:23:09.875Z,9.00
2022-09-28T06:25:36.844Z,9.00
2022-09-28T06:28:06.678Z,9.00
2022-09-28T06:30:35.207Z,9.10
2022-09-28T06:33:02.858Z,9.10
2022-09-28T06:35:31.115Z,9.10
2022-09-28T06:37:59.164Z,9.10
2022-09-28T06:40:26.544Z,9.10
2022-09-28T06:42:59.650Z,9.10
2022-09-28T06:45:28.098Z,9.10
2022-09-28T06:48:00.015Z,9.10
2022-09-28T06:50:29.131Z,9.10
2022-09-28T06:52:57.113Z,9.20
2022-09-28T06:55:24.345Z,9.20
2022-09-28T06:58:05.161Z,9.20
2022-09-28T07:00:34.783Z,9.20
2022-09-28T07:03:06.833Z,9.20
2022-09-28T07:05:36.852Z,9.10
2022-09-28T07:08:04.709Z,9.10
2022-09-28T07:10:32.136Z,9.20
2022-09-28T07:13:02.705Z,9.20
2022-09-28T07:15:30.232Z,9.20
2022-09-28T07:18:02.586Z,9.30
2022-09-28T07:20:30.212Z,9.20
2022-09-28T07:23:15.447Z,9.30
2022-09-28T07:25:47.812Z,9.30
2022-09-28T07:28:15.660Z,9.30
2022-09-28T07:30:44.253Z,9.30
2022-09-28T07:33:14.336Z,9.40
2022-09-28T07:35:44.213Z,9.50
2022-09-28T07:38:11.050Z,9.50
2022-09-28T07:40:56.539Z,9.60
2022-09-28T07:43:23.515Z,9.60
2022-09-28T07:45:52.716Z,9.70
2022-09-28T07:48:20.392Z,9.60
2022-09-28T07:50:52.234Z,9.70
2022-09-28T07:53:20.436Z,9.70
2022-09-28T07:55:55.075Z,9.70
2022-09-28T07:58:22.611Z,9.60
2022-09-28T08:00:50.345Z,9.70
2022-09-28T08:03:18.606Z,9.60
2022-09-28T08:05:45.726Z,9.70
2022-09-28T08:08:13.257Z,9.70
2022-09-28T08:10:46.875Z,9.70
2022-09-28T08:13:15.149Z,9.70
2022-09-28T08:15:42.511Z,9.80
2022-09-28T08:18:09.669Z,9.90
2022-09-28T08:20:55.014Z,9.80
2022-09-28T08:23:21.875Z,9.90
2022-09-28T08:25:50.099Z,10.00
2022-09-28T08:28:17.620Z,10.00
2022-09-28T08:30:45.963Z,10.00
2022-09-28T08:33:17.923Z,10.00
2022-09-28T08:35:46.827Z,10.00
2022-09-28T08:38:14.022Z,10.00
2022-09-28T08:41:08.390Z,10.00
2022-09-28T08:44:01.099Z,10.10
2022-09-28T08:46:37.566Z,10.00
2022-09-28T08:49:26.368Z,10.10
2022-09-28T08:52:03.211Z,10.10
2022-09-28T08:54:45.139Z,10.10
2022-09-28T08:57:16.248Z,10.20
2022-09-28T08:59:53.279Z,10.10
2022-09-28T09:02:33.200Z,10.20
2022-09-28T09:05:02.630Z,10.20
2022-09-28T09:07:37.565Z,10.20
2022-09-28T09:10:19.131Z,10.20
2022-09-28T09:13:03.405Z,10.30
2022-09-28T09:16:03.044Z,10.30
2022-09-28T09:18:54.331Z,10.30
2022-09-28T09:21:52.823Z,10.30
2022-09-28T09:24:27.268Z,10.30
2022-09-28T09:27:16.744Z,10.40
2022-09-28T09:30:06.570Z,10.40
2022-09-28T09:32:59.946Z,10.40
2022-09-28T09:35:48.960Z,10.40
2022-09-28T09:38:30.657Z,10.50
2022-09-28T09:41:03.428Z,10.60
2022-09-28T09:43:55.818Z,10.60
2022-09-28T09:46:44.509Z,10.70
2022-09-28T09:49:18.202Z,10.90
2022-09-28T09:51:57.889Z,10.90
2022-09-28T09:54:29.170Z,10.80
2022-09-28T09:57:04.671Z,10.90
2022-09-28T09:59:39.823Z,11.00
2022-09-28T10:02:20.355Z,10.90
2022-09-28T10:04:49.006Z,10.80
2022-09-28T10:07:24.201Z,10.80
2022-09-28T10:09:56.681Z,10.70
2022-09-28T10:12:24.491Z,10.80
2022-09-28T10:14:51.136Z,10.80
2022-09-28T10:17:20.020Z,10.90
2022-09-28T10:19:46.722Z,11.30
2022-09-28T10:22:20.548Z,11.40
2022-09-28T10:24:51.407Z,11.70
2022-09-28T10:27:24.706Z,12.00
2022-09-28T10:30:12.809Z,12.10
2022-09-28T10:32:41.611Z,12.10
2022-09-28T10:35:14.730Z,12.20
2022-09-28T10:38:01.669Z,12.40
2022-09-28T10:40:40.205Z,12.60
2022-09-28T10:43:25.536Z,12.70
2022-09-28T10:46:12.690Z,12.60
2022-09-28T10:49:06.450Z,12.40
2022-09-28T10:51:53.503Z,12.30
2022-09-28T10:54:25.604Z,12.30
2022-09-28T10:56:54.422Z,12.00
2022-09-28T10:59:30.014Z,11.90
2022-09-28T11:02:04.015Z,11.80
2022-09-28T11:04:38.215Z,11.80
2022-09-28T11:07:15.370Z,11.90
2022-09-28T11:09:48.693Z,11.90
2022-09-28T11:12:21.644Z,11.90
2022-09-28T11:14:54.886Z,11.90
2022-09-28T11:17:24.607Z,11.90
2022-09-28T11:19:52.257Z,11.90
2022-09-28T11:22:26.361Z,11.90
2022-09-28T11:25:12.187Z,12.00
2022-09-28T11:27:39.133Z,12.10
2022-09-28T11:30:20.972Z,12.10
2022-09-28T11:32:47.898Z,12.10
2022-09-28T11:35:29.276Z,12.20
2022-09-28T11:38:20.076Z,12.30
2022-09-28T11:41:19.069Z,12.40
2022-09-28T11:44:21.315Z,12.40
2022-09-28T11:47:06.540Z,12.40
2022-09-28T11:50:06.487Z,12.40
2022-09-28T11:52:55.826Z,12.40
2022-09-28T11:55:26.438Z,12.30
2022-09-28T11:58:31.051Z,12.20
2022-09-28T12:01:15.432Z,12.30
2022-09-28T12:03:51.525Z,12.30
2022-09-28T12:06:29.096Z,12.30
2022-09-28T12:09:06.328Z,12.20
2022-09-28T12:11:43.432Z,12.40
2022-09-28T12:14:21.561Z,12.40
2022-09-28T12:17:05.635Z,12.50
2022-09-28T12:19:36.751Z,12.50
2022-09-28T12:22:12.168Z,12.50
2022-09-28T12:28:26.227Z,12.40
2022-09-28T12:30:54.511Z,12.40
2022-09-28T12:33:21.258Z,12.50
2022-09-28T12:36:07.309Z,12.60
2022-09-28T12:39:21.636Z,12.70
2022-09-28T12:41:58.299Z,12.70
2022-09-28T12:44:32.705Z,12.70
2022-09-28T12:47:35.828Z,12.60
2022-09-28T12:50:41.100Z,12.50
2022-09-28T12:53:20.087Z,12.60
2022-09-28T12:56:03.391Z,12.60
2022-09-28T12:58:45.875Z,12.70
2022-09-28T13:01:15.316Z,12.90
2022-09-28T13:03:57.412Z,13.20
2022-09-28T13:06:48.428Z,13.30
2022-09-28T13:09:25.554Z,13.10
2022-09-28T13:12:24.374Z,13.20
2022-09-28T13:15:12.680Z,13.20
2022-09-28T13:17:48.748Z,13.40
2022-09-28T13:20:38.968Z,13.60
2022-09-28T13:23:31.123Z,13.60
2022-09-28T13:26:17.589Z,13.60
2022-09-28T13:28:46.881Z,13.40
2022-09-28T13:31:20.079Z,13.30
2022-09-28T13:33:47.766Z,13.50
2022-09-28T13:36:30.319Z,13.80
2022-09-28T13:38:59.368Z,14.00
2022-09-28T13:41:33.261Z,13.80
2022-09-28T13:44:06.082Z,14.10
2022-09-28T13:46:35.632Z,14.40
2022-09-28T13:49:23.922Z,14.60
2022-09-28T13:52:05.115Z,14.70
2022-09-28T13:54:38.207Z,14.80
2022-09-28T13:57:26.906Z,14.70
2022-09-28T14:00:10.850Z,14.90
2022-09-28T14:02:47.866Z,14.70
2022-09-28T14:05:25.004Z,14.50
2022-09-28T14:08:13.562Z,14.30
2022-09-28T14:10:46.295Z,14.10
2022-09-28T14:13:12.946Z,14.00
2022-09-28T14:15:41.768Z,14.00
2022-09-28T14:18:33.176Z,13.90
2022-09-28T14:21:02.875Z,14.00
2022-09-28T14:23:37.570Z,13.90
2022-09-28T14:26:41.880Z,13.90
2022-09-28T14:29:11.332Z,13.80
2022-09-28T14:32:25.280Z,13.80
2022-09-28T14:34:59.575Z,14.00
2022-09-28T14:37:51.170Z,14.00
2022-09-28T14:41:15.246Z,13.90
2022-09-28T14:43:44.613Z,13.90
2022-09-28T14:46:11.378Z,13.90
2022-09-28T14:48:50.322Z,13.80
2022-09-28T14:51:40.292Z,13.90
2022-09-28T14:54:12.561Z,13.80
2022-09-28T14:56:54.108Z,13.80
2022-09-28T14:59:36.028Z,13.70
2022-09-28T15:02:12.345Z,13.70
2022-09-28T15:04:46.008Z,13.70
2022-09-28T15:07:24.536Z,13.70
2022-09-28T15:09:59.420Z,13.60
2022-09-28T15:12:28.802Z,13.70
2022-09-28T15:15:02.294Z,13.60
2022-09-28T15:17:39.534Z,13.50
2022-09-28T15:20:29.851Z,13.50
2022-09-28T15:22:58.591Z,13.50
2022-09-28T15:25:31.734Z,13.50
2022-09-28T15:28:04.489Z,13.50
2022-09-28T15:30:33.421Z,13.50
2022-09-28T15:33:20.519Z,13.50
2022-09-28T15:35:54.642Z,13.50
2022-09-28T15:38:21.370Z,13.40
2022-09-28T15:40:48.509Z,13.40
2022-09-28T15:43:32.963Z,13.40
2022-09-28T15:46:13.844Z,13.40
2022-09-28T15:48:46.427Z,13.40
2022-09-28T15:51:13.142Z,13.40
2022-09-28T15:53:58.185Z,13.30
2022-09-28T15:56:26.252Z,13.30
2022-09-28T15:59:13.048Z,13.30
2022-09-28T16:01:43.917Z,13.30
2022-09-28T16:04:40.221Z,13.30
2022-09-28T16:07:12.927Z,13.30
2022-09-28T16:10:11.399Z,13.20
2022-09-28T16:12:37.985Z,13.30
2022-09-28T16:15:16.152Z,13.30
2022-09-28T16:17:43.247Z,13.30
2022-09-28T16:20:29.639Z,13.20
2022-09-28T16:23:05.827Z,13.10
2022-09-28T16:25:37.076Z,13.10
2022-09-28T16:28:04.366Z,13.10
2022-09-28T16:30:33.317Z,13.00
2022-09-28T16:33:26.397Z,13.00
2022-09-28T16:35:53.144Z,12.90
2022-09-28T16:38:19.978Z,12.90
2022-09-28T16:40:53.622Z,12.90
2022-09-28T16:43:28.208Z,12.80
2022-09-28T16:46:01.169Z,12.70
2022-09-28T16:48:30.327Z,12.50
2022-09-28T16:50:57.768Z,12.40
2022-09-28T16:53:43.889Z,12.40
2022-09-28T16:56:12.456Z,12.20
2022-09-28T16:58:39.223Z,12.10
2022-09-28T17:01:09.672Z,12.10
2022-09-28T17:03:36.507Z,11.90
2022-09-28T17:06:06.187Z,11.80
2022-09-28T17:08:33.707Z,11.70
2022-09-28T17:11:18.189Z,11.60
2022-09-28T17:13:49.318Z,11.60
2022-09-28T17:16:18.552Z,11.40
2022-09-28T17:18:45.967Z,11.40
2022-09-28T17:21:20.662Z,11.30
2022-09-28T17:23:49.839Z,11.10
2022-09-28T17:26:18.884Z,11.00
2022-09-28T17:28:45.734Z,10.90
2022-09-28T17:31:15.760Z,11.00
2022-09-28T17:33:42.797Z,10.80
2022-09-28T17:36:13.429Z,10.70
2022-09-28T17:38:42.004Z,10.70
2022-09-28T17:41:20.611Z,10.60
2022-09-28T17:43:47.960Z,10.40
2022-09-28T17:46:45.867Z,10.50
2022-09-28T17:49:12.793Z,10.40
2022-09-28T17:51:39.495Z,10.30
2022-09-28T17:54:08.050Z,10.30
2022-09-28T17:56:35.776Z,10.20
2022-09-28T17:59:07.872Z,10.00
2022-09-28T18:01:38.620Z,10.10
2022-09-28T18:04:08.048Z,10.00
2022-09-28T18:06:35.067Z,9.90
2022-09-28T18:09:03.082Z,9.90
2022-09-28T18:11:31.270Z,9.90
2022-09-28T18:13:57.944Z,9.90
2022-09-28T18:16:26.069Z,9.80
2022-09-28T18:18:52.717Z,9.80
2022-09-28T18:21:19.838Z,9.80
2022-09-28T18:23:46.502Z,9.70
2022-09-28T18:26:19.459Z,9.80
2022-09-28T18:28:46.328Z,9.80
2022-09-28T18:31:14.975Z,9.70
2022-09-28T18:33:41.909Z,9.70
2022-09-28T18:36:08.574Z,9.80
2022-09-28T18:38:36.194Z,9.70
2022-09-28T18:41:15.789Z,9.70
2022-09-28T18:43:48.793Z,9.70
2022-09-28T18:46:15.637Z,9.70
2022-09-28T18:48:42.381Z,9.60
2022-09-28T18:51:10.161Z,9.50
2022-09-28T18:53:37.624Z,9.50
2022-09-28T18:56:12.988Z,9.50
2022-09-28T18:58:41.207Z,9.50
2022-09-28T19:01:28.936Z,9.40
2022-09-28T19:03:56.418Z,9.30
2022-09-28T19:06:23.146Z,9.20
2022-09-28T19:08:55.620Z,9.20
2022-09-28T19:11:22.947Z,9.20
2022-09-28T19:13:49.846Z,9.20
2022-09-28T19:16:18.967Z,9.10
2022-09-28T19:18:46.201Z,9.00
2022-09-28T19:21:14.968Z,8.90
2022-09-28T19:23:49.005Z,8.90
2022-09-28T19:26:18.858Z,8.90
2022-09-28T19:28:45.652Z,8.80
2022-09-28T19:31:12.932Z,8.70
2022-09-28T19:33:40.714Z,8.80
2022-09-28T19:36:12.717Z,8.80
2022-09-28T19:38:40.162Z,8.80
2022-09-28T19:41:49.289Z,8.80
2022-09-28T19:44:24.961Z,8.70
2022-09-28T19:47:06.736Z,8.70
2022-09-28T19:49:38.033Z,8.70
2022-09-28T19:52:16.595Z,8.60
2022-09-28T19:54:45.920Z,8.50
2022-09-28T19:57:14.422Z,8.50
2022-09-28T19:59:41.160Z,8.40
2022-09-28T20:02:10.165Z,8.30
2022-09-28T20:04:37.001Z,8.30
2022-09-28T20:07:04.369Z,8.30
2022-09-28T20:09:32.055Z,8.30
2022-09-28T20:11:58.799Z,8.40
2022-09-28T20:14:25.989Z,8.40
2022-09-28T20:16:53.292Z,8.30
2022-09-28T20:19:21.694Z,8.30
2022-09-28T20:21:49.148Z,8.20
2022-09-28T20:24:17.000Z,8.20
2022-09-28T20:26:45.687Z,8.20
2022-09-28T20:29:12.788Z,8.20
2022-09-28T20:31:39.812Z,8.20
2022-09-28T20:34:06.912Z,8.10
2022-09-28T20:36:34.225Z,8.10
2022-09-28T20:39:02.207Z,8.10
2022-09-28T20:41:34.670Z,8.00
2022-09-28T20:44:05.090Z,7.90
2022-09-28T20:46:33.023Z,8.00
2022-09-28T20:48:59.889Z,8.00
2022-09-28T20:51:26.849Z,8.00
2022-09-28T20:53:55.576Z,7.90
2022-09-28T20:56:40.498Z,7.80
2022-09-28T20:59:09.343Z,7.70
2022-09-28T21:01:36.504Z,7.70
2022-09-28T21:04:05.800Z,7.70
2022-09-28T21:06:37.967Z,7.60
2022-09-28T21:09:05.871Z,7.70
2022-09-28T21:11:34.237Z,7.50
2022-09-28T21:14:02.536Z,7.50
2022-09-28T21:16:31.151Z,7.50
2022-09-28T21:18:58.200Z,7.50
2022-09-28T21:21:25.600Z,7.40
2022-09-28T21:23:55.587Z,7.40
2022-09-28T21:26:25.244Z,7.40
2022-09-28T21:29:13.137Z,7.30
2022-09-28T21:31:45.657Z,7.20
2022-09-28T21:34:14.514Z,7.40
2022-09-28T21:36:43.433Z,7.30
2022-09-28T21:39:10.745Z,7.30
2022-09-28T21:41:37.610Z,7.20
2022-09-28T21:44:05.015Z,7.20
2022-09-28T21:46:34.279Z,7.20
2022-09-28T21:49:02.527Z,7.20
2022-09-28T21:51:29.769Z,7.30
2022-09-28T21:53:56.736Z,7.20
2022-09-28T21:56:24.212Z,7.10
2022-09-28T21:58:51.170Z,7.10
2022-09-28T22:01:23.464Z,7.10
2022-09-28T22:03:52.037Z,7.00
2022-09-28T22:06:20.899Z,7.00
2022-09-28T22:08:48.639Z,7.00
2022-09-28T22:11:20.767Z,7.10
2022-09-28T22:13:52.781Z,7.20
2022-09-28T22:16:22.590Z,7.10
2022-09-28T22:18:50.160Z,7.10
2022-09-28T22:21:22.786Z,7.20
2022-09-28T22:23:50.774Z,7.10
2022-09-28T22:26:25.857Z,7.00
2022-09-28T22:28:55.287Z,7.20
2022-09-28T22:31:28.329Z,7.20
2022-09-28T22:33:55.603Z,7.10
2022-09-28T22:36:22.706Z,7.10
2022-09-28T22:38:49.698Z,7.10
2022-09-28T22:41:20.771Z,7.20
2022-09-28T22:43:49.051Z,7.30
2022-09-28T22:46:18.836Z,7.20
2022-09-28T22:48:54.077Z,7.30
2022-09-28T22:51:21.428Z,7.20
2022-09-28T22:53:48.428Z,7.20
2022-09-28T22:56:18.753Z,7.10
2022-09-28T22:58:46.800Z,7.20
2022-09-28T23:01:17.287Z,7.20
2022-09-28T23:03:44.844Z,7.20
2022-09-28T23:06:13.174Z,7.30
2022-09-28T23:08:40.085Z,7.40
2022-09-28T23:11:07.045Z,7.20
2022-09-28T23:13:33.863Z,7.20
2022-09-28T23:16:12.589Z,7.10
2022-09-28T23:18:43.691Z,7.10
2022-09-28T23:21:15.090Z,7.10
2022-09-28T23:23:42.559Z,6.90
2022-09-28T23:26:18.130Z,7.00
2022-09-28T23:28:45.465Z,7.00
2022-09-28T23:31:22.119Z,6.90
2022-09-28T23:33:49.280Z,6.90
2022-09-28T23:36:16.826Z,6.80
2022-09-28T23:38:44.223Z,6.70
2022-09-28T23:41:11.999Z,6.80
2022-09-28T23:43:38.840Z,6.80
2022-09-28T23:46:06.272Z,6.70
2022-09-28T23:48:33.602Z,6.70
2022-09-28T23:51:00.359Z,6.70
2022-09-28T23:53:27.102Z,6.70
2022-09-28T23:55:54.209Z,6.70
2022-09-28T23:58:21.260Z,6.60
